sensor_id;sensor_type;location;lat;lon;timestamp;P1;durP1;ratioP1;P2;durP2;ratioP2
53915;SDS011;39827;49.652;18.770;2023-07-08T00:00:37;620.20;;;573.35;;
53915;SDS011;39827;49.652;18.770;2023-07-08T00:03:02;627.47;;;580.05;;
53915;SDS011;39827;49.652;18.770;2023-07-08T00:05:28;645.05;;;597.20;;
53915;SDS011;39827;49.652;18.770;2023-07-08T00:07:53;634.25;;;587.65;;
53915;SDS011;39827;49.652;18.770;2023-07-08T00:10:20;616.65;;;570.60;;
53915;SDS011;39827;49.652;18.770;2023-07-08T00:12:49;580.22;;;534.80;;
53915;SDS011;39827;49.652;18.770;2023-07-08T00:15:16;595.63;;;550.42;;
53915;SDS011;39827;49.652;18.770;2023-07-08T00:17:42;618.20;;;571.22;;
53915;SDS011;39827;49.652;18.770;2023-07-08T00:20:20;616.35;;;570.78;;
53915;SDS011;39827;49.652;18.770;2023-07-08T00:22:48;617.00;;;571.78;;
53915;SDS011;39827;49.652;18.770;2023-07-08T00:25:15;594.00;;;549.15;;
53915;SDS011;39827;49.652;18.770;2023-07-08T00:27:41;569.90;;;525.17;;
53915;SDS011;39827;49.652;18.770;2023-07-08T00:30:29;610.92;;;565.80;;
53915;SDS011;39827;49.652;18.770;2023-07-08T00:32:57;575.75;;;531.40;;
53915;SDS011;39827;49.652;18.770;2023-07-08T00:35:26;563.38;;;519.47;;
53915;SDS011;39827;49.652;18.770;2023-07-08T00:37:57;566.60;;;524.28;;
53915;SDS011;39827;49.652;18.770;2023-07-08T00:40:37;583.72;;;540.75;;
53915;SDS011;39827;49.652;18.770;2023-07-08T00:43:12;653.15;;;606.20;;
53915;SDS011;39827;49.652;18.770;2023-07-08T00:45:40;608.30;;;564.40;;
53915;SDS011;39827;49.652;18.770;2023-07-08T00:50:48;574.58;;;531.35;;
53915;SDS011;39827;49.652;18.770;2023-07-08T00:55:51;522.90;;;481.52;;
53915;SDS011;39827;49.652;18.770;2023-07-08T00:58:19;536.55;;;496.42;;
53915;SDS011;39827;49.652;18.770;2023-07-08T01:00:49;535.28;;;495.67;;
53915;SDS011;39827;49.652;18.770;2023-07-08T01:03:18;564.90;;;523.88;;
53915;SDS011;39827;49.652;18.770;2023-07-08T01:05:46;585.35;;;543.42;;
53915;SDS011;39827;49.652;18.770;2023-07-08T01:08:12;553.38;;;512.95;;
53915;SDS011;39827;49.652;18.770;2023-07-08T01:10:48;556.47;;;514.10;;
53915;SDS011;39827;49.652;18.770;2023-07-08T01:13:17;565.33;;;524.13;;
53915;SDS011;39827;49.652;18.770;2023-07-08T01:15:46;523.70;;;483.42;;
53915;SDS011;39827;49.652;18.770;2023-07-08T01:18:14;498.42;;;459.08;;
53915;SDS011;39827;49.652;18.770;2023-07-08T01:20:42;590.80;;;546.78;;
53915;SDS011;39827;49.652;18.770;2023-07-08T01:23:09;535.67;;;494.48;;
53915;SDS011;39827;49.652;18.770;2023-07-08T01:25:36;532.53;;;491.15;;
53915;SDS011;39827;49.652;18.770;2023-07-08T01:28:02;530.72;;;491.30;;
53915;SDS011;39827;49.652;18.770;2023-07-08T01:30:28;509.88;;;469.75;;
53915;SDS011;39827;49.652;18.770;2023-07-08T01:32:55;579.92;;;537.38;;
53915;SDS011;39827;49.652;18.770;2023-07-08T01:35:24;591.42;;;548.58;;
53915;SDS011;39827;49.652;18.770;2023-07-08T01:38:00;504.58;;;465.77;;
53915;SDS011;39827;49.652;18.770;2023-07-08T01:43:00;663.05;;;614.35;;
53915;SDS011;39827;49.652;18.770;2023-07-08T01:45:27;677.28;;;628.05;;
53915;SDS011;39827;49.652;18.770;2023-07-08T01:47:57;556.60;;;513.38;;
53915;SDS011;39827;49.652;18.770;2023-07-08T01:50:26;552.08;;;511.08;;
53915;SDS011;39827;49.652;18.770;2023-07-08T01:52:53;580.00;;;534.88;;
53915;SDS011;39827;49.652;18.770;2023-07-08T01:55:22;609.42;;;564.78;;
53915;SDS011;39827;49.652;18.770;2023-07-08T01:57:52;612.15;;;567.10;;
53915;SDS011;39827;49.652;18.770;2023-07-08T02:00:19;672.63;;;623.25;;
53915;SDS011;39827;49.652;18.770;2023-07-08T02:02:45;596.42;;;553.85;;
53915;SDS011;39827;49.652;18.770;2023-07-08T02:05:11;654.00;;;606.40;;
53915;SDS011;39827;49.652;18.770;2023-07-08T02:07:37;550.17;;;509.15;;
53915;SDS011;39827;49.652;18.770;2023-07-08T02:10:02;538.10;;;495.75;;
53915;SDS011;39827;49.652;18.770;2023-07-08T02:12:28;570.78;;;528.47;;
53915;SDS011;39827;49.652;18.770;2023-07-08T02:14:54;536.88;;;494.73;;
53915;SDS011;39827;49.652;18.770;2023-07-08T02:17:19;514.80;;;474.52;;
53915;SDS011;39827;49.652;18.770;2023-07-08T02:19:44;508.20;;;468.55;;
53915;SDS011;39827;49.652;18.770;2023-07-08T02:22:10;580.22;;;537.70;;
53915;SDS011;39827;49.652;18.770;2023-07-08T02:24:35;622.40;;;577.53;;
53915;SDS011;39827;49.652;18.770;2023-07-08T02:27:01;543.83;;;502.08;;
53915;SDS011;39827;49.652;18.770;2023-07-08T02:29:26;521.70;;;480.88;;
53915;SDS011;39827;49.652;18.770;2023-07-08T02:31:52;523.72;;;482.85;;
53915;SDS011;39827;49.652;18.770;2023-07-08T02:34:18;516.50;;;475.90;;
53915;SDS011;39827;49.652;18.770;2023-07-08T02:36:43;532.00;;;490.45;;
53915;SDS011;39827;49.652;18.770;2023-07-08T02:39:09;536.28;;;494.50;;
53915;SDS011;39827;49.652;18.770;2023-07-08T02:41:35;531.05;;;489.65;;
53915;SDS011;39827;49.652;18.770;2023-07-08T02:44:00;499.83;;;460.95;;
53915;SDS011;39827;49.652;18.770;2023-07-08T02:46:25;526.22;;;485.40;;
53915;SDS011;39827;49.652;18.770;2023-07-08T02:48:51;533.47;;;491.42;;
53915;SDS011;39827;49.652;18.770;2023-07-08T02:51:16;523.20;;;482.08;;
53915;SDS011;39827;49.652;18.770;2023-07-08T02:53:42;493.88;;;454.73;;
53915;SDS011;39827;49.652;18.770;2023-07-08T02:56:07;514.72;;;473.88;;
53915;SDS011;39827;49.652;18.770;2023-07-08T02:58:32;502.60;;;463.15;;
53915;SDS011;39827;49.652;18.770;2023-07-08T03:00:59;513.08;;;473.67;;
53915;SDS011;39827;49.652;18.770;2023-07-08T03:03:25;508.23;;;468.48;;
53915;SDS011;39827;49.652;18.770;2023-07-08T03:06:01;493.80;;;455.30;;
53915;SDS011;39827;49.652;18.770;2023-07-08T03:08:28;497.25;;;460.25;;
53915;SDS011;39827;49.652;18.770;2023-07-08T03:10:55;515.92;;;477.30;;
53915;SDS011;39827;49.652;18.770;2023-07-08T03:13:25;498.17;;;459.05;;
53915;SDS011;39827;49.652;18.770;2023-07-08T03:15:51;523.70;;;482.42;;
53915;SDS011;39827;49.652;18.770;2023-07-08T03:18:17;514.88;;;474.38;;
53915;SDS011;39827;49.652;18.770;2023-07-08T03:20:42;539.47;;;496.70;;
53915;SDS011;39827;49.652;18.770;2023-07-08T03:23:11;526.35;;;484.60;;
53915;SDS011;39827;49.652;18.770;2023-07-08T03:25:37;537.08;;;494.42;;
53915;SDS011;39827;49.652;18.770;2023-07-08T03:28:04;543.05;;;500.42;;
53915;SDS011;39827;49.652;18.770;2023-07-08T03:30:33;545.90;;;504.48;;
53915;SDS011;39827;49.652;18.770;2023-07-08T03:32:59;546.92;;;504.42;;
53915;SDS011;39827;49.652;18.770;2023-07-08T03:35:25;554.65;;;511.10;;
53915;SDS011;39827;49.652;18.770;2023-07-08T03:37:51;562.47;;;518.90;;
53915;SDS011;39827;49.652;18.770;2023-07-08T03:40:17;524.50;;;484.90;;
53915;SDS011;39827;49.652;18.770;2023-07-08T03:42:43;504.45;;;466.85;;
53915;SDS011;39827;49.652;18.770;2023-07-08T03:45:08;520.13;;;479.83;;
53915;SDS011;39827;49.652;18.770;2023-07-08T03:47:34;515.40;;;475.95;;
53915;SDS011;39827;49.652;18.770;2023-07-08T03:50:00;515.08;;;475.63;;
53915;SDS011;39827;49.652;18.770;2023-07-08T03:52:25;523.67;;;483.20;;
53915;SDS011;39827;49.652;18.770;2023-07-08T03:54:50;546.65;;;504.75;;
53915;SDS011;39827;49.652;18.770;2023-07-08T03:57:16;522.55;;;482.00;;
53915;SDS011;39827;49.652;18.770;2023-07-08T03:59:41;501.77;;;463.75;;
53915;SDS011;39827;49.652;18.770;2023-07-08T04:02:08;571.97;;;528.58;;
53915;SDS011;39827;49.652;18.770;2023-07-08T04:04:37;558.85;;;516.92;;
53915;SDS011;39827;49.652;18.770;2023-07-08T04:07:03;513.78;;;476.27;;
53915;SDS011;39827;49.652;18.770;2023-07-08T04:09:29;563.65;;;521.20;;
53915;SDS011;39827;49.652;18.770;2023-07-08T04:11:54;565.22;;;521.75;;
53915;SDS011;39827;49.652;18.770;2023-07-08T04:14:20;569.95;;;526.25;;
53915;SDS011;39827;49.652;18.770;2023-07-08T04:19:22;585.20;;;540.80;;
53915;SDS011;39827;49.652;18.770;2023-07-08T04:21:49;590.75;;;546.00;;
53915;SDS011;39827;49.652;18.770;2023-07-08T04:24:16;590.03;;;545.35;;
53915;SDS011;39827;49.652;18.770;2023-07-08T04:26:42;582.55;;;538.05;;
53915;SDS011;39827;49.652;18.770;2023-07-08T04:29:14;610.50;;;564.13;;
53915;SDS011;39827;49.652;18.770;2023-07-08T04:31:42;549.13;;;507.63;;
53915;SDS011;39827;49.652;18.770;2023-07-08T04:34:08;576.58;;;532.80;;
53915;SDS011;39827;49.652;18.770;2023-07-08T04:36:35;590.80;;;545.95;;
53915;SDS011;39827;49.652;18.770;2023-07-08T04:39:01;598.60;;;553.30;;
53915;SDS011;39827;49.652;18.770;2023-07-08T04:41:28;580.17;;;536.35;;
53915;SDS011;39827;49.652;18.770;2023-07-08T04:43:53;597.85;;;552.50;;
53915;SDS011;39827;49.652;18.770;2023-07-08T04:46:27;612.08;;;565.80;;
53915;SDS011;39827;49.652;18.770;2023-07-08T04:49:16;604.28;;;558.67;;
53915;SDS011;39827;49.652;18.770;2023-07-08T04:51:42;606.85;;;561.03;;
53915;SDS011;39827;49.652;18.770;2023-07-08T04:54:07;646.97;;;598.88;;
53915;SDS011;39827;49.652;18.770;2023-07-08T04:56:38;631.58;;;584.30;;
53915;SDS011;39827;49.652;18.770;2023-07-08T04:59:07;611.50;;;565.83;;
53915;SDS011;39827;49.652;18.770;2023-07-08T05:01:34;624.22;;;577.42;;
53915;SDS011;39827;49.652;18.770;2023-07-08T05:03:59;667.47;;;617.80;;
53915;SDS011;39827;49.652;18.770;2023-07-08T05:06:25;636.33;;;588.53;;
53915;SDS011;39827;49.652;18.770;2023-07-08T05:08:51;636.13;;;588.13;;
53915;SDS011;39827;49.652;18.770;2023-07-08T05:11:16;633.90;;;586.50;;
53915;SDS011;39827;49.652;18.770;2023-07-08T05:13:42;676.38;;;626.03;;
53915;SDS011;39827;49.652;18.770;2023-07-08T05:16:07;651.67;;;603.13;;
53915;SDS011;39827;49.652;18.770;2023-07-08T05:18:33;673.28;;;623.38;;
53915;SDS011;39827;49.652;18.770;2023-07-08T05:20:58;720.28;;;667.38;;
53915;SDS011;39827;49.652;18.770;2023-07-08T05:23:24;697.60;;;646.65;;
53915;SDS011;39827;49.652;18.770;2023-07-08T05:25:49;710.95;;;659.15;;
53915;SDS011;39827;49.652;18.770;2023-07-08T05:28:15;720.10;;;667.15;;
53915;SDS011;39827;49.652;18.770;2023-07-08T05:30:41;735.13;;;681.03;;
53915;SDS011;39827;49.652;18.770;2023-07-08T05:33:07;759.47;;;703.92;;
53915;SDS011;39827;49.652;18.770;2023-07-08T05:35:33;807.78;;;747.42;;
53915;SDS011;39827;49.652;18.770;2023-07-08T05:37:59;800.20;;;740.75;;
53915;SDS011;39827;49.652;18.770;2023-07-08T05:40:24;754.75;;;698.83;;
53915;SDS011;39827;49.652;18.770;2023-07-08T05:42:50;756.78;;;700.80;;
53915;SDS011;39827;49.652;18.770;2023-07-08T05:45:15;715.38;;;663.35;;
53915;SDS011;39827;49.652;18.770;2023-07-08T05:47:40;597.25;;;554.53;;
53915;SDS011;39827;49.652;18.770;2023-07-08T05:50:06;619.70;;;575.40;;
53915;SDS011;39827;49.652;18.770;2023-07-08T05:52:32;426.27;;;397.55;;
53915;SDS011;39827;49.652;18.770;2023-07-08T05:54:57;355.00;;;331.65;;
53915;SDS011;39827;49.652;18.770;2023-07-08T05:57:22;492.80;;;458.52;;
53915;SDS011;39827;49.652;18.770;2023-07-08T05:59:48;247.63;;;231.15;;
53915;SDS011;39827;49.652;18.770;2023-07-08T06:02:15;242.32;;;225.60;;
53915;SDS011;39827;49.652;18.770;2023-07-08T06:04:41;263.10;;;244.68;;
53915;SDS011;39827;49.652;18.770;2023-07-08T06:07:07;300.20;;;278.40;;
53915;SDS011;39827;49.652;18.770;2023-07-08T06:09:32;313.73;;;290.85;;
53915;SDS011;39827;49.652;18.770;2023-07-08T06:11:58;354.15;;;328.63;;
53915;SDS011;39827;49.652;18.770;2023-07-08T06:14:24;348.88;;;323.27;;
53915;SDS011;39827;49.652;18.770;2023-07-08T06:16:49;437.95;;;405.75;;
53915;SDS011;39827;49.652;18.770;2023-07-08T06:19:15;516.17;;;477.52;;
53915;SDS011;39827;49.652;18.770;2023-07-08T06:21:42;538.83;;;498.98;;
53915;SDS011;39827;49.652;18.770;2023-07-08T06:24:08;554.35;;;513.63;;
53915;SDS011;39827;49.652;18.770;2023-07-08T06:26:33;598.05;;;554.67;;
53915;SDS011;39827;49.652;18.770;2023-07-08T06:28:59;617.42;;;572.80;;
53915;SDS011;39827;49.652;18.770;2023-07-08T06:31:24;630.83;;;585.50;;
53915;SDS011;39827;49.652;18.770;2023-07-08T06:33:50;230.50;;;216.77;;
53915;SDS011;39827;49.652;18.770;2023-07-08T06:36:15;209.10;;;196.77;;
53915;SDS011;39827;49.652;18.770;2023-07-08T06:38:41;188.70;;;177.55;;
53915;SDS011;39827;49.652;18.770;2023-07-08T06:41:06;153.75;;;144.77;;
53915;SDS011;39827;49.652;18.770;2023-07-08T06:43:32;171.63;;;161.52;;
53915;SDS011;39827;49.652;18.770;2023-07-08T06:45:57;104.03;;;98.03;;
53915;SDS011;39827;49.652;18.770;2023-07-08T06:48:23;109.25;;;102.82;;
53915;SDS011;39827;49.652;18.770;2023-07-08T06:50:49;121.68;;;114.78;;
53915;SDS011;39827;49.652;18.770;2023-07-08T06:53:15;158.98;;;149.73;;
53915;SDS011;39827;49.652;18.770;2023-07-08T06:55:41;142.20;;;133.95;;
53915;SDS011;39827;49.652;18.770;2023-07-08T06:58:08;169.38;;;159.80;;
53915;SDS011;39827;49.652;18.770;2023-07-08T07:00:34;206.43;;;194.77;;
53915;SDS011;39827;49.652;18.770;2023-07-08T07:02:59;189.98;;;179.18;;
53915;SDS011;39827;49.652;18.770;2023-07-08T07:05:24;197.05;;;185.75;;
53915;SDS011;39827;49.652;18.770;2023-07-08T07:07:50;276.10;;;260.13;;
53915;SDS011;39827;49.652;18.770;2023-07-08T07:10:17;295.25;;;278.02;;
53915;SDS011;39827;49.652;18.770;2023-07-08T07:12:43;272.17;;;256.15;;
53915;SDS011;39827;49.652;18.770;2023-07-08T07:15:08;167.48;;;157.93;;
53915;SDS011;39827;49.652;18.770;2023-07-08T07:17:34;34.80;;;32.65;;
53915;SDS011;39827;49.652;18.770;2023-07-08T07:20:00;22.52;;;20.92;;
53915;SDS011;39827;49.652;18.770;2023-07-08T07:22:26;35.47;;;33.20;;
53915;SDS011;39827;49.652;18.770;2023-07-08T07:24:53;54.92;;;51.63;;
53915;SDS011;39827;49.652;18.770;2023-07-08T07:27:19;55.33;;;52.08;;
53915;SDS011;39827;49.652;18.770;2023-07-08T07:29:49;63.30;;;59.63;;
53915;SDS011;39827;49.652;18.770;2023-07-08T07:32:16;62.45;;;58.75;;
53915;SDS011;39827;49.652;18.770;2023-07-08T07:34:45;77.68;;;73.28;;
53915;SDS011;39827;49.652;18.770;2023-07-08T07:37:12;80.18;;;75.38;;
53915;SDS011;39827;49.652;18.770;2023-07-08T07:39:39;74.88;;;69.97;;
53915;SDS011;39827;49.652;18.770;2023-07-08T07:42:05;83.40;;;78.70;;
53915;SDS011;39827;49.652;18.770;2023-07-08T07:44:31;78.10;;;72.95;;
53915;SDS011;39827;49.652;18.770;2023-07-08T07:46:57;77.40;;;72.82;;
53915;SDS011;39827;49.652;18.770;2023-07-08T07:49:22;69.60;;;65.60;;
53915;SDS011;39827;49.652;18.770;2023-07-08T07:51:48;74.90;;;68.65;;
53915;SDS011;39827;49.652;18.770;2023-07-08T07:54:13;67.47;;;63.42;;
53915;SDS011;39827;49.652;18.770;2023-07-08T07:56:40;80.50;;;75.85;;
53915;SDS011;39827;49.652;18.770;2023-07-08T07:59:05;66.32;;;62.28;;
53915;SDS011;39827;49.652;18.770;2023-07-08T08:01:31;77.25;;;72.72;;
53915;SDS011;39827;49.652;18.770;2023-07-08T08:03:56;61.28;;;57.03;;
53915;SDS011;39827;49.652;18.770;2023-07-08T08:06:22;47.00;;;44.00;;
53915;SDS011;39827;49.652;18.770;2023-07-08T08:08:47;52.50;;;49.20;;
53915;SDS011;39827;49.652;18.770;2023-07-08T08:11:14;40.58;;;38.08;;
53915;SDS011;39827;49.652;18.770;2023-07-08T08:13:40;39.15;;;36.45;;
53915;SDS011;39827;49.652;18.770;2023-07-08T08:16:05;46.47;;;43.70;;
53915;SDS011;39827;49.652;18.770;2023-07-08T08:18:30;49.70;;;46.65;;
53915;SDS011;39827;49.652;18.770;2023-07-08T08:20:56;45.75;;;43.08;;
53915;SDS011;39827;49.652;18.770;2023-07-08T08:23:22;42.25;;;39.45;;
53915;SDS011;39827;49.652;18.770;2023-07-08T08:25:47;68.28;;;64.00;;
53915;SDS011;39827;49.652;18.770;2023-07-08T08:28:14;68.97;;;65.03;;
53915;SDS011;39827;49.652;18.770;2023-07-08T08:30:40;76.60;;;72.05;;
53915;SDS011;39827;49.652;18.770;2023-07-08T08:33:05;96.65;;;90.68;;
53915;SDS011;39827;49.652;18.770;2023-07-08T08:35:31;126.68;;;119.43;;
53915;SDS011;39827;49.652;18.770;2023-07-08T08:37:56;122.55;;;115.65;;
53915;SDS011;39827;49.652;18.770;2023-07-08T08:40:22;140.80;;;133.02;;
53915;SDS011;39827;49.652;18.770;2023-07-08T08:42:57;169.05;;;159.70;;
53915;SDS011;39827;49.652;18.770;2023-07-08T08:45:27;187.15;;;176.77;;
53915;SDS011;39827;49.652;18.770;2023-07-08T08:48:02;210.13;;;198.45;;
53915;SDS011;39827;49.652;18.770;2023-07-08T08:50:39;216.93;;;205.02;;
53915;SDS011;39827;49.652;18.770;2023-07-08T08:53:13;232.80;;;219.85;;
53915;SDS011;39827;49.652;18.770;2023-07-08T08:55:42;209.65;;;197.95;;
53915;SDS011;39827;49.652;18.770;2023-07-08T08:58:10;163.75;;;154.65;;
53915;SDS011;39827;49.652;18.770;2023-07-08T09:03:22;120.50;;;113.50;;
53915;SDS011;39827;49.652;18.770;2023-07-08T09:05:52;101.53;;;95.75;;
53915;SDS011;39827;49.652;18.770;2023-07-08T09:08:23;141.90;;;133.98;;
53915;SDS011;39827;49.652;18.770;2023-07-08T09:10:53;138.88;;;131.27;;
53915;SDS011;39827;49.652;18.770;2023-07-08T09:13:26;127.03;;;119.70;;
53915;SDS011;39827;49.652;18.770;2023-07-08T09:18:32;165.60;;;156.38;;
53915;SDS011;39827;49.652;18.770;2023-07-08T09:21:06;140.35;;;132.27;;
53915;SDS011;39827;49.652;18.770;2023-07-08T09:23:43;109.22;;;102.72;;
53915;SDS011;39827;49.652;18.770;2023-07-08T09:26:13;110.80;;;104.68;;
53915;SDS011;39827;49.652;18.770;2023-07-08T09:28:46;198.25;;;187.23;;
53915;SDS011;39827;49.652;18.770;2023-07-08T09:31:36;111.88;;;105.13;;
53915;SDS011;39827;49.652;18.770;2023-07-08T09:36:30;170.75;;;161.13;;
53915;SDS011;39827;49.652;18.770;2023-07-08T09:38:55;165.60;;;156.40;;
53915;SDS011;39827;49.652;18.770;2023-07-08T09:41:34;99.07;;;93.43;;
53915;SDS011;39827;49.652;18.770;2023-07-08T09:44:04;74.55;;;70.22;;
53915;SDS011;39827;49.652;18.770;2023-07-08T09:46:37;85.38;;;80.45;;
53915;SDS011;39827;49.652;18.770;2023-07-08T09:49:36;66.75;;;62.85;;
53915;SDS011;39827;49.652;18.770;2023-07-08T09:52:01;79.13;;;74.63;;
53915;SDS011;39827;49.652;18.770;2023-07-08T09:54:27;104.93;;;99.07;;
53915;SDS011;39827;49.652;18.770;2023-07-08T09:57:05;111.50;;;105.18;;
53915;SDS011;39827;49.652;18.770;2023-07-08T10:00:02;83.22;;;78.28;;
53915;SDS011;39827;49.652;18.770;2023-07-08T10:02:41;116.57;;;110.10;;
53915;SDS011;39827;49.652;18.770;2023-07-08T10:05:14;167.88;;;158.45;;
53915;SDS011;39827;49.652;18.770;2023-07-08T10:07:47;184.85;;;174.57;;
53915;SDS011;39827;49.652;18.770;2023-07-08T10:10:17;237.77;;;224.65;;
53915;SDS011;39827;49.652;18.770;2023-07-08T10:12:56;205.75;;;194.32;;
53915;SDS011;39827;49.652;18.770;2023-07-08T10:15:30;176.88;;;167.07;;
53915;SDS011;39827;49.652;18.770;2023-07-08T10:18:01;247.63;;;233.93;;
53915;SDS011;39827;49.652;18.770;2023-07-08T10:20:29;289.55;;;273.23;;
53915;SDS011;39827;49.652;18.770;2023-07-08T10:25:55;108.95;;;102.85;;
53915;SDS011;39827;49.652;18.770;2023-07-08T10:34:03;318.27;;;300.35;;
53915;SDS011;39827;49.652;18.770;2023-07-08T10:36:44;318.67;;;300.73;;
53915;SDS011;39827;49.652;18.770;2023-07-08T10:42:01;400.80;;;377.55;;
53915;SDS011;39827;49.652;18.770;2023-07-08T10:44:44;386.60;;;364.30;;
53915;SDS011;39827;49.652;18.770;2023-07-08T10:53:09;257.70;;;243.20;;
53915;SDS011;39827;49.652;18.770;2023-07-08T10:55:55;297.75;;;281.00;;
53915;SDS011;39827;49.652;18.770;2023-07-08T11:01:05;335.67;;;316.55;;
53915;SDS011;39827;49.652;18.770;2023-07-08T11:06:26;305.10;;;287.92;;
53915;SDS011;39827;49.652;18.770;2023-07-08T11:09:03;310.85;;;293.20;;
53915;SDS011;39827;49.652;18.770;2023-07-08T11:14:40;186.43;;;176.13;;
53915;SDS011;39827;49.652;18.770;2023-07-08T11:17:21;205.68;;;194.07;;
53915;SDS011;39827;49.652;18.770;2023-07-08T11:22:39;258.85;;;244.32;;
53915;SDS011;39827;49.652;18.770;2023-07-08T11:25:24;270.48;;;255.18;;
53915;SDS011;39827;49.652;18.770;2023-07-08T11:27:53;291.80;;;275.20;;
53915;SDS011;39827;49.652;18.770;2023-07-08T11:30:22;241.30;;;227.88;;
53915;SDS011;39827;49.652;18.770;2023-07-08T11:32:52;370.98;;;349.55;;
53915;SDS011;39827;49.652;18.770;2023-07-08T11:35:33;282.42;;;266.55;;
53915;SDS011;39827;49.652;18.770;2023-07-08T11:38:02;233.65;;;220.63;;
53915;SDS011;39827;49.652;18.770;2023-07-08T11:40:29;157.15;;;148.27;;
53915;SDS011;39827;49.652;18.770;2023-07-08T11:43:02;208.45;;;196.70;;
53915;SDS011;39827;49.652;18.770;2023-07-08T11:45:38;227.40;;;214.43;;
53915;SDS011;39827;49.652;18.770;2023-07-08T11:50:43;306.88;;;289.33;;
53915;SDS011;39827;49.652;18.770;2023-07-08T11:58:25;222.18;;;209.63;;
53915;SDS011;39827;49.652;18.770;2023-07-08T12:08:51;142.63;;;134.75;;
53915;SDS011;39827;49.652;18.770;2023-07-08T12:11:17;115.50;;;108.82;;
53915;SDS011;39827;49.652;18.770;2023-07-08T12:13:43;82.28;;;77.68;;
53915;SDS011;39827;49.652;18.770;2023-07-08T12:16:09;116.65;;;110.05;;
53915;SDS011;39827;49.652;18.770;2023-07-08T12:18:38;137.35;;;129.77;;
53915;SDS011;39827;49.652;18.770;2023-07-08T12:21:11;88.10;;;83.18;;
53915;SDS011;39827;49.652;18.770;2023-07-08T12:23:43;75.50;;;71.30;;
53915;SDS011;39827;49.652;18.770;2023-07-08T12:26:12;77.35;;;72.97;;
53915;SDS011;39827;49.652;18.770;2023-07-08T12:28:39;112.70;;;106.45;;
53915;SDS011;39827;49.652;18.770;2023-07-08T12:31:15;72.70;;;68.43;;
53915;SDS011;39827;49.652;18.770;2023-07-08T12:33:43;59.20;;;55.60;;
53915;SDS011;39827;49.652;18.770;2023-07-08T12:36:10;127.90;;;120.75;;
53915;SDS011;39827;49.652;18.770;2023-07-08T12:38:39;96.38;;;90.80;;
53915;SDS011;39827;49.652;18.770;2023-07-08T12:41:14;127.43;;;120.43;;
53915;SDS011;39827;49.652;18.770;2023-07-08T12:43:42;137.88;;;130.32;;
53915;SDS011;39827;49.652;18.770;2023-07-08T12:46:11;109.22;;;102.90;;
53915;SDS011;39827;49.652;18.770;2023-07-08T12:48:38;73.90;;;69.25;;
53915;SDS011;39827;49.652;18.770;2023-07-08T12:51:05;88.63;;;83.20;;
53915;SDS011;39827;49.652;18.770;2023-07-08T12:53:31;81.50;;;76.85;;
53915;SDS011;39827;49.652;18.770;2023-07-08T12:55:59;105.65;;;99.68;;
53915;SDS011;39827;49.652;18.770;2023-07-08T12:58:27;111.78;;;105.57;;
53915;SDS011;39827;49.652;18.770;2023-07-08T13:00:55;144.25;;;136.07;;
53915;SDS011;39827;49.652;18.770;2023-07-08T13:03:29;87.22;;;82.15;;
53915;SDS011;39827;49.652;18.770;2023-07-08T13:05:57;150.07;;;141.80;;
53915;SDS011;39827;49.652;18.770;2023-07-08T13:08:26;77.13;;;72.80;;
53915;SDS011;39827;49.652;18.770;2023-07-08T13:10:59;78.85;;;74.45;;
53915;SDS011;39827;49.652;18.770;2023-07-08T13:13:28;94.28;;;88.90;;
53915;SDS011;39827;49.652;18.770;2023-07-08T13:15:57;103.43;;;97.70;;
53915;SDS011;39827;49.652;18.770;2023-07-08T13:18:33;90.28;;;84.38;;
53915;SDS011;39827;49.652;18.770;2023-07-08T13:21:01;82.38;;;77.50;;
53915;SDS011;39827;49.652;18.770;2023-07-08T13:23:28;91.82;;;86.43;;
53915;SDS011;39827;49.652;18.770;2023-07-08T13:25:54;98.22;;;92.45;;
53915;SDS011;39827;49.652;18.770;2023-07-08T13:28:35;124.63;;;117.53;;
53915;SDS011;39827;49.652;18.770;2023-07-08T13:31:13;122.07;;;115.28;;
53915;SDS011;39827;49.652;18.770;2023-07-08T13:33:47;81.95;;;77.15;;
53915;SDS011;39827;49.652;18.770;2023-07-08T13:36:16;150.25;;;141.68;;
53915;SDS011;39827;49.652;18.770;2023-07-08T13:38:43;123.45;;;116.53;;
53915;SDS011;39827;49.652;18.770;2023-07-08T13:41:09;106.53;;;100.55;;
53915;SDS011;39827;49.652;18.770;2023-07-08T13:43:38;84.93;;;80.10;;
53915;SDS011;39827;49.652;18.770;2023-07-08T13:46:06;85.35;;;80.40;;
53915;SDS011;39827;49.652;18.770;2023-07-08T13:48:50;114.32;;;107.90;;
53915;SDS011;39827;49.652;18.770;2023-07-08T13:51:21;76.47;;;72.05;;
53915;SDS011;39827;49.652;18.770;2023-07-08T13:53:49;95.72;;;90.35;;
53915;SDS011;39827;49.652;18.770;2023-07-08T13:58:54;76.15;;;71.57;;
53915;SDS011;39827;49.652;18.770;2023-07-08T14:01:28;86.88;;;82.03;;
53915;SDS011;39827;49.652;18.770;2023-07-08T14:03:55;108.45;;;102.10;;
53915;SDS011;39827;49.652;18.770;2023-07-08T14:06:22;92.05;;;86.82;;
53915;SDS011;39827;49.652;18.770;2023-07-08T14:08:54;75.40;;;71.10;;
53915;SDS011;39827;49.652;18.770;2023-07-08T14:13:47;65.60;;;61.35;;
53915;SDS011;39827;49.652;18.770;2023-07-08T14:16:25;66.43;;;62.67;;
53915;SDS011;39827;49.652;18.770;2023-07-08T14:18:57;69.28;;;65.22;;
53915;SDS011;39827;49.652;18.770;2023-07-08T14:21:25;60.72;;;56.95;;
53915;SDS011;39827;49.652;18.770;2023-07-08T14:23:50;74.45;;;70.20;;
53915;SDS011;39827;49.652;18.770;2023-07-08T14:26:16;86.78;;;81.85;;
53915;SDS011;39827;49.652;18.770;2023-07-08T14:28:41;104.40;;;98.50;;
53915;SDS011;39827;49.652;18.770;2023-07-08T14:31:10;97.30;;;91.90;;
53915;SDS011;39827;49.652;18.770;2023-07-08T14:33:37;116.05;;;109.57;;
53915;SDS011;39827;49.652;18.770;2023-07-08T14:36:07;116.20;;;109.63;;
53915;SDS011;39827;49.652;18.770;2023-07-08T14:38:34;79.18;;;74.68;;
53915;SDS011;39827;49.652;18.770;2023-07-08T14:40:59;70.60;;;66.50;;
53915;SDS011;39827;49.652;18.770;2023-07-08T14:43:29;86.55;;;81.20;;
53915;SDS011;39827;49.652;18.770;2023-07-08T14:48:24;56.72;;;53.33;;
53915;SDS011;39827;49.652;18.770;2023-07-08T14:50:52;68.20;;;64.20;;
53915;SDS011;39827;49.652;18.770;2023-07-08T14:53:18;75.78;;;71.10;;
53915;SDS011;39827;49.652;18.770;2023-07-08T14:55:44;67.18;;;63.30;;
53915;SDS011;39827;49.652;18.770;2023-07-08T14:58:25;71.40;;;67.30;;
53915;SDS011;39827;49.652;18.770;2023-07-08T15:00:56;60.08;;;56.53;;
53915;SDS011;39827;49.652;18.770;2023-07-08T15:03:23;70.25;;;66.13;;
53915;SDS011;39827;49.652;18.770;2023-07-08T15:05:49;62.40;;;58.17;;
53915;SDS011;39827;49.652;18.770;2023-07-08T15:08:15;62.40;;;58.17;;